Time;durP1;ratioP1;P1;durP2;ratioP2;P2;SDS_P1;SDS_P2;PMS_P1;PMS_P2;Temp;Humidity;BMP_temperature;BMP_pressure;BME280_temperature;BME280_humidity;BME280_pressure;Samples;Min_cycle;Max_cycle;Signal;HPM_P1;HPM_P2
2022/06/11 00:00:45;;;;;;;7.70;7.00;;;17.00;99.90;;;;;;5015391;28;20222;-81
2022/06/11 00:03:12;;;;;;;9.57;6.93;;;17.10;99.90;;;;;;5007444;28;20503;-81
2022/06/11 00:05:40;;;;;;;10.20;7.33;;;17.10;99.90;;;;;;5006060;28;20218;-81
2022/06/11 00:08:08;;;;;;;8.00;6.60;;;17.00;99.90;;;;;;5007130;28;20226;-81
2022/06/11 00:10:35;;;;;;;8.77;6.47;;;17.10;99.90;;;;;;5005424;28;20233;-81
2022/06/11 00:13:02;;;;;;;8.13;7.33;;;17.10;99.90;;;;;;5008867;28;20370;-82
2022/06/11 00:15:30;;;;;;;7.70;6.53;;;17.10;99.90;;;;;;5003238;28;20424;-81
2022/06/11 00:17:57;;;;;;;10.75;6.68;;;17.10;99.90;;;;;;5022935;28;20256;-81
2022/06/11 00:20:24;;;;;;;8.13;6.10;;;17.10;99.90;;;;;;5008957;28;20213;-80
2022/06/11 00:22:52;;;;;;;8.40;6.10;;;17.10;99.90;;;;;;5010708;28;20237;-81
2022/06/11 00:25:20;;;;;;;10.13;6.60;;;17.10;99.90;;;;;;5004179;28;20736;-80
2022/06/11 00:27:59;;;;;;;9.32;6.55;;;17.10;99.90;;;;;;5007958;28;20258;-81
2022/06/11 00:30:38;;;;;;;7.97;6.20;;;17.10;99.90;;;;;;5012065;28;20231;-78
2022/06/11 00:33:13;;;;;;;10.77;6.70;;;17.10;99.90;;;;;;5004232;28;20245;-81
2022/06/11 00:35:41;;;;;;;9.18;6.53;;;17.00;99.90;;;;;;5009412;28;20220;-80
2022/06/11 00:38:10;;;;;;;7.68;6.38;;;17.10;99.90;;;;;;5014012;28;20709;-82
2022/06/11 00:40:39;;;;;;;10.30;6.73;;;17.10;99.90;;;;;;5008750;28;20226;-82
2022/06/11 00:43:07;;;;;;;8.80;6.63;;;17.10;99.90;;;;;;5008823;28;20221;-82
2022/06/11 00:45:36;;;;;;;9.87;6.93;;;17.10;99.90;;;;;;5007996;28;20226;-84
2022/06/11 00:48:07;;;;;;;8.37;7.00;;;17.10;99.90;;;;;;5010124;28;20225;-83
2022/06/11 00:50:44;;;;;;;10.67;6.70;;;17.10;99.90;;;;;;5010422;28;20229;-83
2022/06/11 00:53:15;;;;;;;9.13;6.40;;;17.00;99.90;;;;;;5007591;28;20224;-84
2022/06/11 00:55:45;;;;;;;9.10;6.87;;;17.00;99.90;;;;;;5007642;28;20612;-83
2022/06/11 00:58:16;;;;;;;8.13;6.67;;;17.00;99.90;;;;;;5010400;28;20556;-82
2022/06/11 01:00:47;;;;;;;7.27;6.57;;;17.00;99.90;;;;;;5012161;28;20304;-80
2022/06/11 01:03:18;;;;;;;7.27;6.07;;;17.00;99.90;;;;;;5025092;28;20240;-80
2022/06/11 01:05:49;;;;;;;9.70;6.87;;;17.00;99.90;;;;;;5010151;28;20225;-81
2022/06/11 01:08:41;;;;;;;6.35;5.75;;;17.00;99.90;;;;;;5007534;28;20301;-81
2022/06/11 01:11:34;;;;;;;7.07;6.23;;;17.00;99.90;;;;;;5008289;28;20804;-81
2022/06/11 01:14:20;;;;;;;6.97;5.80;;;17.00;99.90;;;;;;5010077;28;20707;-81
2022/06/11 01:17:06;;;;;;;7.83;5.97;;;16.90;99.90;;;;;;5009891;28;20225;-80
2022/06/11 01:19:58;;;;;;;8.10;5.80;;;16.90;99.90;;;;;;5006703;28;20225;-82
2022/06/11 01:22:41;;;;;;;7.00;5.67;;;16.90;99.90;;;;;;5008858;28;20888;-83
2022/06/11 01:25:22;;;;;;;7.07;5.77;;;16.90;99.90;;;;;;5008153;28;20601;-81
2022/06/11 01:28:03;;;;;;;9.10;5.67;;;16.90;99.90;;;;;;5003739;28;20316;-81
2022/06/11 01:30:34;;;;;;;8.80;5.97;;;16.80;99.90;;;;;;5007388;28;20244;-81
2022/06/11 01:33:10;;;;;;;7.10;5.47;;;16.80;99.90;;;;;;5006207;28;20233;-81
2022/06/11 01:35:50;;;;;;;8.33;5.80;;;16.80;99.90;;;;;;5003925;28;20467;-81
2022/06/11 01:38:22;;;;;;;7.47;5.63;;;16.80;99.90;;;;;;5005225;28;20229;-81
2022/06/11 01:40:54;;;;;;;7.20;5.30;;;16.80;99.90;;;;;;5008141;28;20217;-81
2022/06/11 01:43:26;;;;;;;7.50;5.60;;;16.70;99.90;;;;;;5003057;28;20261;-81
2022/06/11 01:45:54;;;;;;;7.40;5.33;;;16.70;99.90;;;;;;5010514;28;20952;-81
2022/06/11 01:48:23;;;;;;;7.37;5.57;;;16.70;99.90;;;;;;5005100;28;20234;-80
2022/06/11 01:51:07;;;;;;;10.67;5.60;;;16.70;99.90;;;;;;5010316;28;20317;-81
2022/06/11 01:54:05;;;;;;;7.37;6.00;;;16.70;99.90;;;;;;5002300;28;20245;-81
2022/06/11 01:57:05;;;;;;;6.27;5.00;;;16.70;99.90;;;;;;5009636;28;20295;-81
2022/06/11 01:59:56;;;;;;;8.50;5.70;;;16.70;99.90;;;;;;5003741;28;20226;-83
2022/06/11 02:02:40;;;;;;;8.00;5.63;;;16.70;99.90;;;;;;5011781;28;20225;-81
2022/06/11 02:05:16;;;;;;;9.13;5.70;;;16.70;99.90;;;;;;5003144;28;20225;-80
2022/06/11 02:07:50;;;;;;;7.10;5.57;;;16.70;99.90;;;;;;5006547;28;20229;-80
2022/06/11 02:10:20;;;;;;;7.50;5.30;;;16.70;99.90;;;;;;5002842;28;20279;-80
2022/06/11 02:12:52;;;;;;;8.57;5.40;;;16.70;99.90;;;;;;5004486;28;20309;-80
2022/06/11 02:15:25;;;;;;;8.57;5.37;;;16.70;99.90;;;;;;5010352;28;20229;-80
2022/06/11 02:17:57;;;;;;;8.07;5.50;;;16.70;99.90;;;;;;5009308;28;20225;-80
2022/06/11 02:20:29;;;;;;;6.33;5.70;;;16.70;99.90;;;;;;5005860;28;20293;-82
2022/06/11 02:23:01;;;;;;;7.77;5.23;;;16.70;99.90;;;;;;5014753;28;20315;-81
2022/06/11 02:25:31;;;;;;;7.93;5.45;;;16.70;99.90;;;;;;5005088;28;21720;-80
2022/06/11 02:28:01;;;;;;;7.45;5.63;;;16.70;99.90;;;;;;5009516;28;20667;-80
2022/06/11 02:30:31;;;;;;;8.23;5.60;;;16.70;99.90;;;;;;4999550;28;20232;-81
2022/06/11 02:33:00;;;;;;;7.03;5.00;;;16.70;99.90;;;;;;5004526;28;20632;-81
2022/06/11 02:35:35;;;;;;;7.43;5.13;;;16.70;99.90;;;;;;5004700;28;20575;-81
2022/06/11 02:38:04;;;;;;;7.82;4.93;;;16.70;99.90;;;;;;4999517;28;20226;-81
2022/06/11 02:40:41;;;;;;;6.70;5.50;;;16.70;99.90;;;;;;5005698;28;20229;-81
2022/06/11 02:43:08;;;;;;;9.97;5.27;;;16.70;99.90;;;;;;5008919;28;20701;-81
2022/06/11 02:45:34;;;;;;;7.10;5.30;;;16.70;99.90;;;;;;5006186;28;20280;-81
2022/06/11 02:48:03;;;;;;;7.37;5.93;;;16.70;99.90;;;;;;5003115;28;20290;-81
2022/06/11 02:50:32;;;;;;;7.20;5.63;;;16.70;99.90;;;;;;5004105;28;20584;-83
2022/06/11 02:53:01;;;;;;;9.17;5.90;;;16.70;99.90;;;;;;5008714;28;20867;-82
2022/06/11 02:55:30;;;;;;;7.20;5.23;;;16.80;99.90;;;;;;5013409;28;20225;-82
2022/06/11 02:57:58;;;;;;;7.83;5.37;;;16.80;99.90;;;;;;5006204;28;20220;-83
2022/06/11 03:00:29;;;;;;;6.33;4.97;;;16.80;99.90;;;;;;5002562;28;22153;-81
2022/06/11 03:02:56;;;;;;;7.57;5.27;;;16.80;99.90;;;;;;5006804;28;20243;-80
2022/06/11 03:05:28;;;;;;;7.67;5.60;;;16.80;99.90;;;;;;5005012;28;20221;-80
2022/06/11 03:07:56;;;;;;;6.20;5.07;;;16.80;99.90;;;;;;5003921;28;20265;-81
2022/06/11 03:10:24;;;;;;;9.07;5.37;;;16.80;99.90;;;;;;5004720;28;20233;-80
2022/06/11 03:12:52;;;;;;;8.00;5.13;;;16.80;99.90;;;;;;5006421;28;20228;-82
2022/06/11 03:15:21;;;;;;;6.73;5.40;;;16.80;99.90;;;;;;5008884;28;20289;-82
2022/06/11 03:17:50;;;;;;;7.87;4.93;;;16.80;99.90;;;;;;5009797;28;20626;-81
2022/06/11 03:20:18;;;;;;;6.47;5.20;;;16.80;99.90;;;;;;5005310;28;20225;-83
2022/06/11 03:22:46;;;;;;;6.57;4.90;;;16.80;99.90;;;;;;5005358;28;20225;-81
2022/06/11 03:25:13;;;;;;;7.30;5.27;;;16.90;99.90;;;;;;5004732;28;20243;-81
2022/06/11 03:27:43;;;;;;;6.20;5.30;;;16.90;99.90;;;;;;5012699;28;20221;-81
2022/06/11 03:30:12;;;;;;;6.83;5.53;;;16.90;99.90;;;;;;5013148;28;20738;-82
2022/06/11 03:32:39;;;;;;;7.23;5.00;;;16.90;99.90;;;;;;5012870;28;20236;-80
2022/06/11 03:35:06;;;;;;;9.57;5.67;;;16.90;99.90;;;;;;5006908;28;20225;-80
2022/06/11 03:37:33;;;;;;;7.77;4.93;;;16.90;99.90;;;;;;5005954;28;20256;-80
2022/06/11 03:40:01;;;;;;;7.17;5.20;;;16.90;99.90;;;;;;5002947;28;20709;-81
2022/06/11 03:42:28;;;;;;;6.47;4.93;;;16.90;99.90;;;;;;5007466;28;20625;-81
2022/06/11 03:44:55;;;;;;;6.10;4.93;;;16.90;99.90;;;;;;5006265;28;20221;-80
2022/06/11 03:47:22;;;;;;;8.30;5.27;;;16.90;99.90;;;;;;5006652;28;20233;-81
2022/06/11 03:49:48;;;;;;;8.23;5.60;;;16.90;99.90;;;;;;5004369;28;20221;-81
2022/06/11 03:52:15;;;;;;;7.50;4.83;;;16.90;99.90;;;;;;5005652;28;20604;-82
2022/06/11 03:54:42;;;;;;;6.53;5.10;;;16.90;99.90;;;;;;5007054;28;20317;-81
2022/06/11 03:57:10;;;;;;;5.83;5.20;;;16.90;99.90;;;;;;5006748;28;20264;-81
2022/06/11 03:59:37;;;;;;;6.43;5.30;;;16.90;99.90;;;;;;5014637;28;20734;-79
2022/06/11 04:02:04;;;;;;;6.27;5.30;;;16.90;99.90;;;;;;5012457;28;20865;-80
2022/06/11 04:04:31;;;;;;;10.17;4.97;;;16.90;99.90;;;;;;5009080;28;20225;-80
2022/06/11 04:07:00;;;;;;;10.03;5.10;;;16.90;99.90;;;;;;5030003;28;20280;-80
2022/06/11 04:09:30;;;;;;;5.80;5.30;;;17.00;99.90;;;;;;5015616;28;20321;-80
2022/06/11 04:11:57;;;;;;;5.57;5.07;;;17.00;99.90;;;;;;5011677;28;20596;-80
2022/06/11 04:14:25;;;;;;;5.03;4.50;;;17.00;99.90;;;;;;5014481;28;20233;-80
2022/06/11 04:16:56;;;;;;;6.07;4.70;;;17.00;99.90;;;;;;5011269;28;20578;-80
2022/06/11 04:19:25;;;;;;;5.63;4.30;;;16.90;99.90;;;;;;5012789;28;20217;-80
2022/06/11 04:21:54;;;;;;;6.93;5.23;;;16.90;99.90;;;;;;5010736;28;20767;-80
2022/06/11 04:24:22;;;;;;;5.73;5.03;;;16.90;99.90;;;;;;5009232;28;20236;-80
2022/06/11 04:26:51;;;;;;;6.37;5.37;;;16.90;99.90;;;;;;5015024;28;20229;-80
2022/06/11 04:29:21;;;;;;;6.97;5.00;;;16.90;99.90;;;;;;5009272;28;20245;-80
2022/06/11 04:31:51;;;;;;;6.50;5.00;;;16.90;99.90;;;;;;5011164;28;20232;-80
2022/06/11 04:34:18;;;;;;;7.33;4.80;;;17.00;99.90;;;;;;5010015;28;20575;-80
2022/06/11 04:36:48;;;;;;;6.23;5.07;;;17.10;99.90;;;;;;5013190;28;20288;-80
2022/06/11 04:39:17;;;;;;;5.90;5.23;;;17.00;99.90;;;;;;5009868;28;20233;-79
2022/06/11 04:41:44;;;;;;;6.38;4.72;;;17.10;99.90;;;;;;5011328;28;20308;-83
2022/06/11 04:44:11;;;;;;;6.32;4.78;;;17.20;99.90;;;;;;5011157;28;20225;-83
2022/06/11 04:46:39;;;;;;;7.57;4.90;;;17.30;99.90;;;;;;5011571;28;20385;-82
2022/06/11 04:49:07;;;;;;;5.72;4.70;;;17.30;99.90;;;;;;5010187;28;20222;-81
2022/06/11 04:51:34;;;;;;;6.17;4.60;;;17.30;99.90;;;;;;5006493;28;20238;-80
2022/06/11 04:54:01;;;;;;;8.93;5.50;;;17.40;99.90;;;;;;5005271;28;20240;-80
2022/06/11 04:56:30;;;;;;;5.87;4.73;;;17.40;99.90;;;;;;5016373;28;20312;-81
2022/06/11 04:58:57;;;;;;;7.13;4.80;;;17.50;99.90;;;;;;5016014;28;20222;-80
2022/06/11 05:01:26;;;;;;;6.80;4.60;;;17.50;99.90;;;;;;5008153;28;20590;-81
2022/06/11 05:03:54;;;;;;;9.47;5.57;;;17.50;99.90;;;;;;5009000;28;20304;-81
2022/06/11 05:06:26;;;;;;;6.90;5.40;;;17.60;99.90;;;;;;5009777;28;20233;-79
2022/06/11 05:08:53;;;;;;;6.00;4.90;;;17.60;99.90;;;;;;5003956;28;20225;-79
2022/06/11 05:11:20;;;;;;;6.23;5.00;;;17.70;99.90;;;;;;4999351;28;20218;-80
2022/06/11 05:13:47;;;;;;;8.05;5.10;;;17.70;99.90;;;;;;5003580;28;20224;-79
2022/06/11 05:16:16;;;;;;;6.50;5.03;;;17.70;99.90;;;;;;5002330;28;20312;-81
2022/06/11 05:18:43;;;;;;;5.75;5.18;;;17.80;99.90;;;;;;5007386;28;20253;-80
2022/06/11 05:21:10;;;;;;;7.78;5.25;;;17.80;99.90;;;;;;5006846;28;20308;-80
2022/06/11 05:23:38;;;;;;;6.65;5.68;;;17.80;99.90;;;;;;5004358;28;20305;-79
2022/06/11 05:26:06;;;;;;;7.53;5.15;;;17.90;99.90;;;;;;5006980;28;20221;-79
2022/06/11 05:28:34;;;;;;;6.80;5.40;;;17.90;99.90;;;;;;5003544;28;20306;-80
2022/06/11 05:31:01;;;;;;;7.65;5.15;;;18.00;99.90;;;;;;4999841;28;20224;-80
2022/06/11 05:33:28;;;;;;;6.68;5.10;;;18.00;99.90;;;;;;5004189;28;20632;-80
2022/06/11 05:35:56;;;;;;;7.77;5.57;;;18.00;99.90;;;;;;5006050;28;20221;-80
2022/06/11 05:38:25;;;;;;;9.02;5.80;;;18.10;99.90;;;;;;5005766;28;20623;-81
2022/06/11 05:40:54;;;;;;;9.20;5.43;;;18.10;99.90;;;;;;5008277;28;20666;-80
2022/06/11 05:43:22;;;;;;;5.90;4.95;;;18.10;99.90;;;;;;5005586;28;20221;-80
2022/06/11 05:45:54;;;;;;;6.93;6.05;;;18.20;99.90;;;;;;5009711;28;20870;-80
2022/06/11 05:48:26;;;;;;;8.63;5.85;;;18.20;99.90;;;;;;5001821;28;20883;-80
2022/06/11 05:50:57;;;;;;;8.98;6.30;;;18.30;99.90;;;;;;5001794;28;20233;-81
2022/06/11 05:53:27;;;;;;;9.07;6.22;;;18.30;99.90;;;;;;5002461;28;20236;-80
2022/06/11 05:55:58;;;;;;;8.15;6.30;;;18.40;99.90;;;;;;5003803;28;20233;-80
2022/06/11 05:58:28;;;;;;;7.95;6.90;;;18.60;99.90;;;;;;5005117;28;20240;-81
2022/06/11 06:00:56;;;;;;;9.52;6.25;;;18.60;99.90;;;;;;5009938;28;20221;-80
2022/06/11 06:03:23;;;;;;;11.13;6.88;;;18.70;99.90;;;;;;5009682;28;20225;-81
2022/06/11 06:05:50;;;;;;;9.23;6.43;;;18.80;99.90;;;;;;5009576;28;20225;-81
2022/06/11 06:08:16;;;;;;;9.25;6.95;;;18.90;99.90;;;;;;5009438;28;20320;-80
2022/06/11 06:10:43;;;;;;;10.57;7.03;;;19.00;99.90;;;;;;5006919;28;20308;-80
2022/06/11 06:15:59;;;;;;;10.60;6.55;;;19.10;99.90;;;;;;5008819;28;20225;-81
2022/06/11 06:18:25;;;;;;;11.25;7.03;;;19.20;99.90;;;;;;5007047;28;20240;-82
2022/06/11 06:20:52;;;;;;;12.90;7.35;;;19.30;99.90;;;;;;5009153;28;20286;-81
2022/06/11 06:23:20;;;;;;;10.75;6.78;;;19.40;99.90;;;;;;5008594;28;20722;-81
2022/06/11 06:25:49;;;;;;;10.18;7.68;;;19.60;99.90;;;;;;5002865;28;20248;-81
2022/06/11 06:28:17;;;;;;;12.98;7.70;;;19.80;99.90;;;;;;5000314;28;20412;-82
2022/06/11 06:30:44;;;;;;;9.85;6.82;;;20.00;99.90;;;;;;5006521;28;20225;-81
2022/06/11 06:33:11;;;;;;;13.65;6.80;;;20.20;99.90;;;;;;5006724;28;20225;-81
2022/06/11 06:35:40;;;;;;;11.40;6.60;;;20.40;99.90;;;;;;5006800;28;20253;-81
2022/06/11 06:38:07;;;;;;;9.38;6.38;;;20.60;99.90;;;;;;5005334;28;20684;-80
2022/06/11 06:40:34;;;;;;;10.80;6.30;;;20.80;99.90;;;;;;5013641;28;20224;-82
2022/06/11 06:43:02;;;;;;;11.30;6.70;;;20.90;99.90;;;;;;5004711;28;20249;-80
2022/06/11 06:45:30;;;;;;;10.95;6.93;;;20.90;99.90;;;;;;5010608;28;20303;-81
2022/06/11 06:47:57;;;;;;;10.25;6.20;;;21.00;99.90;;;;;;5011880;28;20308;-81
2022/06/11 06:50:23;;;;;;;10.07;7.13;;;21.00;99.90;;;;;;5007053;28;20601;-81
2022/06/11 06:52:50;;;;;;;10.90;6.75;;;21.00;99.90;;;;;;5003948;28;20746;-81
2022/06/11 06:55:17;;;;;;;10.48;6.95;;;21.00;99.90;;;;;;5004941;28;20321;-81
2022/06/11 06:57:44;;;;;;;8.15;6.53;;;21.10;99.90;;;;;;5007848;28;20312;-82
2022/06/11 07:00:15;;;;;;;10.88;7.65;;;21.10;99.90;;;;;;5009785;28;20227;-81
2022/06/11 07:02:44;;;;;;;9.18;6.88;;;21.20;99.90;;;;;;5016732;28;20224;-81
2022/06/11 07:05:12;;;;;;;12.07;6.72;;;21.50;99.90;;;;;;5008325;28;20213;-81
2022/06/11 07:07:39;;;;;;;7.93;5.57;;;21.70;99.90;;;;;;5010755;28;20299;-80
2022/06/11 07:10:08;;;;;;;8.13;5.97;;;21.90;99.90;;;;;;5013832;28;20222;-83
2022/06/11 07:12:34;;;;;;;9.73;5.90;;;22.10;99.90;;;;;;5005864;28;20653;-79
2022/06/11 07:15:01;;;;;;;7.80;5.30;;;22.30;99.60;;;;;;5006703;28;20221;-81
2022/06/11 07:17:33;;;;;;;6.55;5.18;;;22.40;99.40;;;;;;5002982;28;20237;-80
2022/06/11 07:20:05;;;;;;;7.03;4.82;;;22.50;98.90;;;;;;5003268;28;20305;-82
2022/06/11 07:22:38;;;;;;;7.03;5.43;;;22.60;98.40;;;;;;5011233;28;20228;-86
2022/06/11 07:25:08;;;;;;;9.63;5.28;;;22.60;98.00;;;;;;5015441;28;20230;-81
2022/06/11 07:27:38;;;;;;;8.70;5.38;;;22.60;98.00;;;;;;5013808;28;20786;-80
2022/06/11 07:30:09;;;;;;;7.78;6.15;;;22.50;97.90;;;;;;5011948;28;20229;-81
2022/06/11 07:32:36;;;;;;;9.27;6.70;;;22.50;97.70;;;;;;5013043;28;20240;-80
2022/06/11 07:35:05;;;;;;;10.27;6.55;;;22.40;97.40;;;;;;5006153;28;20981;-80
2022/06/11 07:37:33;;;;;;;11.02;7.35;;;22.30;97.70;;;;;;5005044;28;20244;-80
2022/06/11 07:40:02;;;;;;;9.50;7.28;;;22.20;97.60;;;;;;5008012;28;20229;-81
2022/06/11 07:42:29;;;;;;;10.18;7.85;;;22.10;97.80;;;;;;5008108;28;20225;-82
2022/06/11 07:44:56;;;;;;;8.02;7.00;;;22.00;97.90;;;;;;5013297;28;20221;-81
2022/06/11 07:50:11;;;;;;;10.43;7.05;;;22.00;98.20;;;;;;5022608;28;20221;-82
2022/06/11 07:52:38;;;;;;;9.70;7.03;;;22.20;98.40;;;;;;5012161;28;20283;-82
2022/06/11 07:55:06;;;;;;;9.88;6.78;;;22.50;98.60;;;;;;5016850;28;20489;-81
2022/06/11 07:57:33;;;;;;;10.00;7.22;;;23.00;98.30;;;;;;5016882;28;20225;-82
2022/06/11 08:00:00;;;;;;;10.82;7.00;;;23.50;97.40;;;;;;5012110;28;20225;-82
2022/06/11 08:02:27;;;;;;;9.82;6.55;;;24.00;96.90;;;;;;5009963;28;20225;-82
2022/06/11 08:04:54;;;;;;;7.55;6.05;;;24.50;96.20;;;;;;5011428;28;20225;-81
2022/06/11 08:07:22;;;;;;;9.20;6.20;;;24.90;95.80;;;;;;5012426;28;20305;-76
2022/06/11 08:09:49;;;;;;;9.55;6.05;;;25.30;95.10;;;;;;5013982;28;20229;-79
2022/06/11 08:12:15;;;;;;;6.57;5.90;;;25.60;94.60;;;;;;5014326;28;20225;-80
2022/06/11 08:14:43;;;;;;;8.38;6.32;;;25.90;94.10;;;;;;5016929;28;20367;-80
2022/06/11 08:17:10;;;;;;;11.23;6.70;;;26.00;93.30;;;;;;5016358;28;20252;-80
2022/06/11 08:19:36;;;;;;;9.15;5.90;;;25.90;92.60;;;;;;5013071;28;20222;-80
2022/06/11 08:22:03;;;;;;;10.25;6.20;;;25.80;92.20;;;;;;5015165;28;20229;-80
2022/06/11 08:24:31;;;;;;;8.23;6.35;;;25.70;92.40;;;;;;5014188;28;20295;-80
2022/06/11 08:26:58;;;;;;;10.57;5.65;;;25.70;92.20;;;;;;5005682;28;20308;-80
2022/06/11 08:29:25;;;;;;;9.70;5.47;;;25.80;92.10;;;;;;5015090;28;20273;-80
2022/06/11 08:31:52;;;;;;;5.47;4.43;;;26.10;92.20;;;;;;5007350;28;20218;-80
2022/06/11 08:34:18;;;;;;;5.97;4.43;;;26.30;92.20;;;;;;5014871;28;20312;-81
2022/06/11 08:36:45;;;;;;;5.57;4.55;;;26.50;91.20;;;;;;5014780;28;20233;-80
2022/06/11 08:39:12;;;;;;;6.15;4.70;;;26.60;90.10;;;;;;5006359;28;20231;-80
2022/06/11 08:41:41;;;;;;;6.68;5.03;;;26.60;89.00;;;;;;5013178;28;20304;-80
2022/06/11 08:44:12;;;;;;;6.93;4.85;;;26.50;88.00;;;;;;5010867;28;20221;-80
2022/06/11 08:46:41;;;;;;;6.22;4.93;;;26.40;87.20;;;;;;5012011;28;20229;-80
2022/06/11 08:49:13;;;;;;;6.45;4.80;;;26.20;88.20;;;;;;5014552;28;20628;-81
2022/06/11 08:51:43;;;;;;;6.88;5.00;;;26.20;87.00;;;;;;5019048;28;20235;-80
2022/06/11 08:54:12;;;;;;;5.53;4.68;;;26.30;86.70;;;;;;5006811;28;20706;-80
2022/06/11 08:56:49;;;;;;;5.43;4.80;;;26.40;87.80;;;;;;5009223;28;20253;-80
2022/06/11 08:59:28;;;;;;;5.97;4.50;;;26.50;86.60;;;;;;5010504;28;20227;-81
2022/06/11 09:02:07;;;;;;;6.75;4.53;;;26.70;85.10;;;;;;5014383;28;20538;-80
2022/06/11 09:04:49;;;;;;;5.88;4.10;;;26.90;85.10;;;;;;5012088;28;20231;-80
2022/06/11 09:07:30;;;;;;;4.57;3.75;;;27.10;84.30;;;;;;5013580;28;20877;-80
2022/06/11 09:10:10;;;;;;;4.78;3.78;;;27.10;82.80;;;;;;5006206;28;20229;-80
2022/06/11 09:12:51;;;;;;;4.55;3.33;;;27.00;81.30;;;;;;5007074;28;20667;-80
2022/06/11 09:15:27;;;;;;;4.25;2.58;;;26.90;80.70;;;;;;5001279;28;20233;-80
2022/06/11 09:18:45;;;;;;;2.88;1.98;;;26.90;80.30;;;;;;5015373;28;20229;-80
2022/06/11 09:21:24;;;;;;;2.70;2.00;;;27.00;77.30;;;;;;4943831;29;20224;-80
2022/06/11 09:24:06;;;;;;;7.00;2.10;;;27.30;78.20;;;;;;5013192;28;20237;-80
2022/06/11 09:26:43;;;;;;;3.20;2.13;;;27.70;77.40;;;;;;5011742;28;20588;-80
2022/06/11 09:29:15;;;;;;;5.80;1.88;;;28.10;73.50;;;;;;5009061;28;20659;-81
2022/06/11 09:31:47;;;;;;;3.60;2.00;;;28.40;73.10;;;;;;5006178;28;20221;-81
2022/06/11 09:34:19;;;;;;;3.67;2.15;;;28.60;70.60;;;;;;5007347;28;20232;-81
2022/06/11 09:36:55;;;;;;;3.95;2.20;;;28.60;70.40;;;;;;5005931;28;20225;-81
2022/06/11 09:39:36;;;;;;;3.35;2.00;;;28.50;69.00;;;;;;5011918;28;21957;-81
2022/06/11 09:42:29;;;;;;;4.43;1.92;;;28.50;67.90;;;;;;5004100;28;20221;-81
2022/06/11 09:45:03;;;;;;;4.70;2.20;;;28.50;68.00;;;;;;5005496;28;20222;-81
2022/06/11 09:47:46;;;;;;;3.90;2.03;;;28.60;67.90;;;;;;5008497;28;20252;-82
2022/06/11 09:50:21;;;;;;;4.57;2.45;;;28.70;67.70;;;;;;5005444;28;20246;-81
2022/06/11 09:52:55;;;;;;;3.35;2.08;;;29.00;68.00;;;;;;5022890;28;20224;-83
2022/06/11 09:55:29;;;;;;;3.28;2.00;;;29.20;67.90;;;;;;5004259;28;20312;-82
2022/06/11 09:58:04;;;;;;;2.05;1.75;;;29.50;64.90;;;;;;5003577;28;20712;-81
2022/06/11 10:00:38;;;;;;;4.32;2.05;;;29.60;64.00;;;;;;5001379;28;20224;-81
2022/06/11 10:03:14;;;;;;;4.05;1.90;;;29.80;64.20;;;;;;5010874;28;20232;-81
2022/06/11 10:05:48;;;;;;;2.65;1.60;;;29.80;62.90;;;;;;5016113;28;20239;-81
2022/06/11 10:08:22;;;;;;;4.55;1.80;;;29.90;61.00;;;;;;5005640;28;20229;-82
2022/06/11 10:10:51;;;;;;;3.53;2.03;;;29.90;60.80;;;;;;5002733;28;20243;-81
2022/06/11 10:13:29;;;;;;;5.80;2.00;;;30.00;60.20;;;;;;5004710;28;20260;-81
2022/06/11 10:15:59;;;;;;;2.55;1.45;;;30.00;59.40;;;;;;5002456;28;20231;-82
2022/06/11 10:18:33;;;;;;;3.83;2.20;;;30.10;60.40;;;;;;5002372;28;20225;-82
2022/06/11 10:21:07;;;;;;;2.05;1.83;;;30.10;59.70;;;;;;4995277;28;20228;-81
2022/06/11 10:23:40;;;;;;;3.97;1.73;;;30.10;59.60;;;;;;4998491;28;20213;-81
2022/06/11 10:26:14;;;;;;;5.13;1.65;;;30.10;59.00;;;;;;5004873;28;20241;-81
2022/06/11 10:28:46;;;;;;;2.83;1.52;;;30.10;57.90;;;;;;5007797;28;20228;-83
2022/06/11 10:31:18;;;;;;;2.50;1.58;;;30.00;57.00;;;;;;5007282;28;20304;-81
2022/06/11 10:33:51;;;;;;;4.60;1.55;;;30.00;56.70;;;;;;5002572;28;20226;-81
2022/06/11 10:36:25;;;;;;;4.70;1.80;;;30.20;57.00;;;;;;5007446;28;20229;-82
2022/06/11 10:38:57;;;;;;;2.65;1.60;;;30.30;57.10;;;;;;5001344;28;20227;-81
2022/06/11 10:41:30;;;;;;;3.42;1.80;;;30.50;55.70;;;;;;5005443;28;20229;-81
2022/06/11 10:44:10;;;;;;;2.70;1.73;;;30.70;55.00;;;;;;5001940;28;20218;-82
2022/06/11 10:46:38;;;;;;;2.78;1.70;;;30.80;54.50;;;;;;5006403;28;20217;-81
2022/06/11 10:49:11;;;;;;;5.53;1.80;;;30.90;54.30;;;;;;5011211;28;20319;-83
2022/06/11 10:51:39;;;;;;;3.83;2.08;;;31.00;53.70;;;;;;4999015;28;20256;-82
2022/06/11 10:54:15;;;;;;;5.05;1.90;;;31.10;53.80;;;;;;5019727;28;20736;-81
2022/06/11 10:56:58;;;;;;;3.38;1.58;;;31.10;53.10;;;;;;5061196;27;20721;-83
2022/06/11 10:59:30;;;;;;;4.20;1.80;;;31.10;51.30;;;;;;5029790;28;20220;-83
2022/06/11 11:02:03;;;;;;;3.40;1.80;;;31.10;51.50;;;;;;5041685;28;20228;-81
2022/06/11 11:04:40;;;;;;;5.55;2.00;;;31.00;51.60;;;;;;5044673;28;20220;-82
2022/06/11 11:07:10;;;;;;;4.68;1.85;;;31.00;51.30;;;;;;5055518;28;20295;-83
2022/06/11 11:09:37;;;;;;;4.15;1.92;;;30.90;52.00;;;;;;5040870;28;20255;-83
2022/06/11 11:12:10;;;;;;;7.18;2.35;;;30.70;51.80;;;;;;5040503;28;20235;-81
2022/06/11 11:14:41;;;;;;;6.18;1.90;;;30.60;51.40;;;;;;5054127;28;20230;-81
2022/06/11 11:17:18;;;;;;;5.55;2.17;;;30.50;51.30;;;;;;5040949;28;20228;-82
2022/06/11 11:20:29;;;;;;;5.22;2.05;;;30.20;51.10;;;;;;5042909;28;20334;-83
2022/06/11 11:22:36;;;;;;;5.25;2.25;;;30.00;51.90;;;;;;5046226;28;20342;-81
2022/06/11 11:25:07;;;;;;;5.93;2.17;;;29.70;52.50;;;;;;5044061;28;20756;-82
2022/06/11 11:27:43;;;;;;;5.22;2.10;;;29.40;53.00;;;;;;5043718;28;20230;-82
2022/06/11 11:30:24;;;;;;;3.92;2.03;;;29.20;53.60;;;;;;5043407;28;20227;-83
2022/06/11 11:32:50;;;;;;;6.03;2.30;;;29.00;53.90;;;;;;5042574;28;20202;-81
2022/06/11 11:35:19;;;;;;;6.03;2.42;;;28.90;53.50;;;;;;5038291;28;20212;-83
2022/06/11 11:37:55;;;;;;;4.25;2.08;;;29.00;53.60;;;;;;5047770;28;20306;-82
2022/06/11 11:40:28;;;;;;;5.57;2.20;;;29.00;54.20;;;;;;5070181;28;20679;-81
2022/06/11 11:42:59;;;;;;;6.93;2.60;;;29.20;54.00;;;;;;5042590;28;20216;-82
2022/06/11 11:45:41;;;;;;;5.63;2.25;;;29.40;53.90;;;;;;5073818;28;20197;-82
2022/06/11 11:48:14;;;;;;;6.53;2.20;;;29.70;53.00;;;;;;5064603;28;20221;-82
2022/06/11 11:50:42;;;;;;;7.18;2.35;;;30.10;52.90;;;;;;5040602;28;20200;-82
2022/06/11 11:53:19;;;;;;;6.28;2.22;;;30.40;53.50;;;;;;5073138;28;20223;-82
2022/06/11 11:55:56;;;;;;;7.50;2.60;;;30.70;52.10;;;;;;5040734;28;20248;-83
2022/06/11 11:58:30;;;;;;;5.75;2.47;;;30.90;52.00;;;;;;5037521;28;20248;-82
2022/06/11 12:01:01;;;;;;;7.55;2.50;;;31.10;50.80;;;;;;5038919;28;20203;-82
2022/06/11 12:03:34;;;;;;;8.50;2.63;;;31.20;51.20;;;;;;5046853;28;20914;-82
2022/06/11 12:06:02;;;;;;;5.70;2.22;;;31.30;51.00;;;;;;5042270;28;20196;-82
2022/06/11 12:08:35;;;;;;;6.75;2.33;;;31.40;50.20;;;;;;5029653;28;20234;-82
2022/06/11 12:11:02;;;;;;;5.88;2.20;;;31.30;49.50;;;;;;5031734;28;20674;-83
2022/06/11 12:13:32;;;;;;;5.95;2.20;;;31.30;50.30;;;;;;5036904;28;20237;-83
2022/06/11 12:16:02;;;;;;;6.03;2.30;;;31.30;50.00;;;;;;5022595;28;20236;-82
2022/06/11 12:18:36;;;;;;;4.15;1.77;;;31.40;50.00;;;;;;5019188;28;20229;-83
2022/06/11 12:21:07;;;;;;;6.15;2.38;;;31.50;49.20;;;;;;5025224;28;20250;-82
2022/06/11 12:23:40;;;;;;;6.13;2.13;;;31.40;48.50;;;;;;5021122;28;20230;-84
2022/06/11 12:26:13;;;;;;;5.53;2.28;;;31.30;48.40;;;;;;5043753;28;20205;-82
2022/06/11 12:28:47;;;;;;;7.82;2.70;;;31.10;49.00;;;;;;5027532;28;20622;-82
2022/06/11 12:31:14;;;;;;;7.15;2.70;;;30.80;49.20;;;;;;5027000;28;20267;-83
2022/06/11 12:33:46;;;;;;;7.70;2.60;;;30.50;49.20;;;;;;5025143;28;20228;-81
2022/06/11 12:36:22;;;;;;;7.53;2.42;;;30.20;49.60;;;;;;5058586;28;20229;-82
2022/06/11 12:38:56;;;;;;;6.50;2.50;;;29.90;50.10;;;;;;5022824;28;20283;-82
2022/06/11 12:41:39;;;;;;;7.20;2.22;;;29.60;50.30;;;;;;5021360;28;20392;-82
2022/06/11 12:44:27;;;;;;;5.30;2.42;;;29.40;50.70;;;;;;5023124;28;20224;-82
2022/06/11 12:47:00;;;;;;;4.65;2.08;;;29.20;51.30;;;;;;5039934;28;20231;-83
2022/06/11 12:49:36;;;;;;;7.47;2.40;;;29.20;52.10;;;;;;5020448;28;20317;-81
2022/06/11 12:52:13;;;;;;;8.02;2.55;;;29.10;52.30;;;;;;5027471;28;20216;-82
2022/06/11 12:54:59;;;;;;;6.18;3.15;;;29.00;52.80;;;;;;5015414;28;20305;-81
2022/06/11 12:57:43;;;;;;;6.32;2.60;;;28.90;52.90;;;;;;5026726;28;22724;-81
2022/06/11 13:00:30;;;;;;;8.93;3.38;;;28.70;53.90;;;;;;5019807;28;20227;-81
2022/06/11 13:03:06;;;;;;;6.18;2.47;;;28.70;54.90;;;;;;5022893;28;20335;-82
2022/06/11 13:05:48;;;;;;;9.00;2.90;;;28.70;54.30;;;;;;5023837;28;20232;-82
2022/06/11 13:08:28;;;;;;;7.82;2.53;;;28.70;53.70;;;;;;5027818;28;20242;-82
2022/06/11 13:11:03;;;;;;;5.95;2.63;;;28.60;53.80;;;;;;5024595;28;20221;-82
2022/06/11 13:13:44;;;;;;;6.63;2.72;;;28.60;54.20;;;;;;5028625;28;20220;-82